Boulder Creek, California
Current Conditions -  °F | °C
As of 11:53 PM on Monday 26 Jan 2015 (Local Time) from KSJC Reporting Station
Broken Clouds Broken Clouds  
Wind Chill: 54°   Ceiling: 15000
Heat Index: 54°   Visibility: 10mi
Dew Point: 45°   Wind: 5mph
Humidity: 72%   Direction: 120°ESE
Pressure: 30"   Gusts: NA
Location:  37.13°N, 122.12°W
Report Text: KSJC 270753Z 12004KT 10SM BKN150 12/07 A3000 RMK AO2 SLP156 T01220072 401830039
Loading
Personal Weather Stations






























Interactive Weather Map New forecast layout! Learn more

10-Day Weather Forecast

Advertisements
Track Severe Weather on mobile